Аэропорт: Иркутск. Иркутск

ICAO: UIII

METAR:
2018/07/22 20:00
UIII 222000Z 08002MPS 2200 R12/P2000N BR NSC 11/11 Q1008 R12/CLRD60 NOSIG RMK QFE714/0952
METAR:
2018/07/22 18:21
TAF UIII 221700Z 2218/2318 15003MPS 0300 FG VV001 
      TEMPO 2218/2302 2000 BR FU BKN003 
      BECMG 2302/2303 3100 FU SCT015